createdAt,value
2023-03-28T00:01:04.503Z,0.80
2023-03-28T00:03:36.589Z,0.80
2023-03-28T00:06:09.919Z,1.07
2023-03-28T00:08:39.528Z,0.77
2023-03-28T00:11:18.966Z,1.50
2023-03-28T00:13:53.699Z,1.00
2023-03-28T00:16:21.871Z,0.80
2023-03-28T00:18:51.212Z,0.90
2023-03-28T00:21:27.478Z,0.97
2023-03-28T00:23:57.289Z,1.20
2023-03-28T00:26:26.847Z,1.10
2023-03-28T00:28:55.204Z,0.90
2023-03-28T00:31:24.592Z,1.10
2023-03-28T00:33:52.227Z,0.90
2023-03-28T00:36:23.198Z,1.00
2023-03-28T00:38:52.371Z,0.93
2023-03-28T00:41:22.133Z,1.40
2023-03-28T00:43:54.471Z,1.30
2023-03-28T00:46:33.014Z,1.00
2023-03-28T00:49:05.929Z,1.10
2023-03-28T00:51:41.758Z,1.00
2023-03-28T00:54:15.205Z,1.30
2023-03-28T00:56:46.103Z,0.93
2023-03-28T00:59:18.295Z,1.00
2023-03-28T01:01:46.401Z,1.00
2023-03-28T01:04:20.628Z,1.00
2023-03-28T01:06:51.639Z,1.20
2023-03-28T01:09:21.283Z,1.00
2023-03-28T01:11:49.261Z,1.17
2023-03-28T01:14:18.864Z,1.10
2023-03-28T01:16:47.905Z,0.80
2023-03-28T01:19:36.896Z,1.10
2023-03-28T01:22:25.285Z,0.90
2023-03-28T01:25:14.133Z,1.20
2023-03-28T01:28:02.398Z,1.10
2023-03-28T01:30:41.700Z,1.37
2023-03-28T01:33:17.693Z,1.00
2023-03-28T01:36:06.466Z,1.20
2023-03-28T01:38:54.902Z,1.20
2023-03-28T01:41:39.976Z,1.10
2023-03-28T01:44:10.423Z,1.17
2023-03-28T01:46:43.743Z,1.30
2023-03-28T01:49:32.656Z,1.00
2023-03-28T01:52:23.078Z,1.27
2023-03-28T01:55:11.884Z,1.30
2023-03-28T01:57:46.468Z,1.23
2023-03-28T02:00:43.428Z,0.80
2023-03-28T02:03:25.427Z,1.10
2023-03-28T02:05:55.759Z,1.00
2023-03-28T02:08:28.222Z,1.20
2023-03-28T02:10:57.001Z,1.20
2023-03-28T02:13:30.725Z,1.23
2023-03-28T02:16:00.849Z,1.30
2023-03-28T02:18:34.918Z,1.20
2023-03-28T02:21:16.989Z,1.20
2023-03-28T02:23:48.601Z,1.20
2023-03-28T02:26:17.413Z,1.30
2023-03-28T02:28:46.711Z,1.33
2023-03-28T02:31:13.912Z,1.43
2023-03-28T02:33:49.686Z,1.20
2023-03-28T02:36:25.953Z,1.20
2023-03-28T02:39:33.751Z,1.07
2023-03-28T02:42:03.645Z,1.00
2023-03-28T02:45:00.882Z,1.07
2023-03-28T02:47:44.280Z,1.20
2023-03-28T02:50:53.764Z,1.03
2023-03-28T02:53:44.969Z,1.27
2023-03-28T02:56:22.035Z,1.20
2023-03-28T02:59:24.408Z,1.00
2023-03-28T03:01:52.096Z,1.10
2023-03-28T03:04:19.469Z,0.90
2023-03-28T03:06:48.558Z,1.20
2023-03-28T03:09:18.056Z,1.20
2023-03-28T03:11:45.389Z,1.10
2023-03-28T03:14:12.775Z,1.07
2023-03-28T03:16:40.039Z,1.30
2023-03-28T03:19:07.741Z,1.33
2023-03-28T03:21:36.606Z,0.97
2023-03-28T03:24:04.405Z,1.33
2023-03-28T03:26:31.603Z,1.03
2023-03-28T03:29:00.904Z,1.10
2023-03-28T03:31:28.132Z,1.40
2023-03-28T03:33:55.791Z,1.27
2023-03-28T03:36:22.954Z,1.27
2023-03-28T03:38:50.094Z,1.40
2023-03-28T03:41:17.200Z,1.07
2023-03-28T03:43:46.638Z,1.60
2023-03-28T03:46:14.653Z,1.20
2023-03-28T03:48:49.487Z,1.30
2023-03-28T03:51:18.149Z,1.30
2023-03-28T03:53:46.854Z,1.10
2023-03-28T03:56:14.109Z,1.30
2023-03-28T03:58:41.260Z,1.33
2023-03-28T04:01:14.119Z,1.30
2023-03-28T04:03:42.079Z,1.30
2023-03-28T04:06:09.955Z,1.10
2023-03-28T04:08:37.105Z,1.10
2023-03-28T04:11:04.529Z,1.10
2023-03-28T04:13:31.917Z,1.47
2023-03-28T04:15:59.548Z,1.00
2023-03-28T04:18:29.887Z,1.37
2023-03-28T04:20:59.869Z,1.13
2023-03-28T04:23:27.183Z,1.30
2023-03-28T04:25:58.523Z,1.30
2023-03-28T04:28:27.991Z,1.20
2023-03-28T04:31:00.992Z,1.50
2023-03-28T04:33:33.915Z,1.00
2023-03-28T04:36:02.587Z,1.03
2023-03-28T04:38:32.035Z,1.03
2023-03-28T04:40:59.653Z,1.20
2023-03-28T04:43:30.624Z,1.20
2023-03-28T04:45:59.233Z,0.90
2023-03-28T04:48:27.624Z,1.20
2023-03-28T04:50:55.401Z,1.37
2023-03-28T04:53:23.067Z,1.00
2023-03-28T04:55:50.699Z,1.03
2023-03-28T04:58:19.665Z,0.93
2023-03-28T05:00:47.238Z,1.40
2023-03-28T05:03:18.523Z,1.10
2023-03-28T05:05:47.837Z,1.10
2023-03-28T05:08:17.369Z,1.10
2023-03-28T05:10:47.898Z,1.00
2023-03-28T05:13:16.547Z,0.97
2023-03-28T05:15:44.310Z,1.20
2023-03-28T05:18:12.176Z,1.37
2023-03-28T05:20:39.425Z,1.63
2023-03-28T05:23:07.394Z,1.33
2023-03-28T05:25:35.260Z,1.13
2023-03-28T05:28:03.480Z,1.20
2023-03-28T05:30:30.757Z,1.10
2023-03-28T05:32:58.622Z,1.07
2023-03-28T05:35:25.989Z,0.90
2023-03-28T05:37:53.676Z,0.93
2023-03-28T05:40:20.960Z,1.20
2023-03-28T05:42:50.967Z,1.00
2023-03-28T05:45:18.154Z,1.00
2023-03-28T05:47:45.423Z,0.90
2023-03-28T05:50:12.736Z,1.00
2023-03-28T05:52:39.849Z,0.93
2023-03-28T05:55:07.763Z,0.70
2023-03-28T05:57:35.108Z,0.93
2023-03-28T06:00:04.848Z,0.67
2023-03-28T06:02:33.724Z,1.10
2023-03-28T06:05:00.991Z,0.70
2023-03-28T06:07:41.560Z,0.80
2023-03-28T06:10:11.939Z,0.73
2023-03-28T06:12:39.193Z,1.00
2023-03-28T06:15:07.270Z,0.90
2023-03-28T06:17:34.689Z,1.00
2023-03-28T06:20:02.014Z,1.10
2023-03-28T06:22:29.410Z,0.83
2023-03-28T06:24:56.603Z,0.80
2023-03-28T06:27:23.762Z,1.00
2023-03-28T06:29:51.092Z,1.00
2023-03-28T06:32:19.433Z,0.90
2023-03-28T06:34:46.665Z,0.90
2023-03-28T06:37:14.133Z,0.87
2023-03-28T06:39:41.500Z,1.00
2023-03-28T06:42:08.708Z,1.00
2023-03-28T06:44:36.044Z,0.87
2023-03-28T06:47:03.262Z,0.73
2023-03-28T06:49:30.390Z,1.10
2023-03-28T06:51:57.536Z,0.60
2023-03-28T06:54:25.436Z,1.00
2023-03-28T06:56:52.896Z,1.10
2023-03-28T06:59:20.131Z,1.03
2023-03-28T07:01:47.285Z,0.77
2023-03-28T07:04:14.552Z,0.87
2023-03-28T07:06:41.898Z,1.07
2023-03-28T07:09:09.130Z,0.73
2023-03-28T07:11:36.290Z,0.90
2023-03-28T07:14:06.463Z,0.77
2023-03-28T07:16:33.825Z,0.90
2023-03-28T07:19:03.887Z,0.70
2023-03-28T07:21:31.248Z,0.90
2023-03-28T07:23:58.670Z,0.90
2023-03-28T07:26:27.685Z,1.00
2023-03-28T07:28:55.932Z,1.03
2023-03-28T07:31:27.033Z,0.70
2023-03-28T07:33:58.226Z,0.80
2023-03-28T07:36:27.776Z,0.87
2023-03-28T07:38:55.626Z,0.80
2023-03-28T07:41:23.055Z,1.23
2023-03-28T07:43:50.607Z,0.80
2023-03-28T07:46:18.228Z,1.00
2023-03-28T07:48:46.663Z,0.80
2023-03-28T07:51:14.632Z,0.90
2023-03-28T07:53:42.337Z,1.00
2023-03-28T07:56:13.285Z,0.90
2023-03-28T07:58:41.698Z,0.77
2023-03-28T08:01:12.247Z,0.67
2023-03-28T08:03:40.877Z,0.70
2023-03-28T08:06:20.675Z,0.80
2023-03-28T08:08:56.229Z,0.87
2023-03-28T08:11:23.345Z,0.90
2023-03-28T08:13:50.543Z,0.57
2023-03-28T08:16:17.757Z,0.90
2023-03-28T08:18:45.056Z,0.70
2023-03-28T08:21:12.394Z,0.83
2023-03-28T08:23:39.592Z,0.70
2023-03-28T08:26:07.482Z,0.77
2023-03-28T08:28:46.332Z,0.50
2023-03-28T08:31:16.595Z,0.70
2023-03-28T08:33:45.492Z,0.80
2023-03-28T08:36:15.966Z,0.77
2023-03-28T08:38:51.157Z,1.00
2023-03-28T08:41:55.562Z,0.60
2023-03-28T08:45:08.967Z,0.70
2023-03-28T08:48:05.431Z,0.70
2023-03-28T08:50:36.517Z,0.80
2023-03-28T08:53:05.040Z,0.93
2023-03-28T08:55:40.990Z,0.70
2023-03-28T08:58:14.986Z,0.83
2023-03-28T09:00:42.289Z,0.73
2023-03-28T09:03:15.854Z,0.63
2023-03-28T09:06:09.628Z,0.60
2023-03-28T09:09:00.641Z,0.60
2023-03-28T09:11:54.551Z,0.80
2023-03-28T09:14:45.827Z,0.60
2023-03-28T09:17:25.306Z,0.50
2023-03-28T09:20:01.000Z,0.70
2023-03-28T09:23:07.178Z,0.70
2023-03-28T09:25:51.706Z,0.70
2023-03-28T09:28:27.565Z,0.70
2023-03-28T09:30:59.038Z,0.67
2023-03-28T09:33:34.992Z,0.90
2023-03-28T09:36:04.108Z,0.80
2023-03-28T09:38:39.044Z,0.90
2023-03-28T09:41:14.689Z,0.80
2023-03-28T09:43:44.650Z,0.80
2023-03-28T09:46:16.897Z,0.60
2023-03-28T09:48:44.478Z,0.87
2023-03-28T09:51:19.550Z,0.70
2023-03-28T09:53:46.805Z,0.70
2023-03-28T09:56:28.555Z,1.13
2023-03-28T09:58:58.518Z,0.70
2023-03-28T10:01:43.139Z,0.80
2023-03-28T10:04:38.081Z,0.60
2023-03-28T10:07:11.407Z,0.80
2023-03-28T10:09:50.869Z,0.90
2023-03-28T10:12:25.325Z,0.73
2023-03-28T10:14:52.729Z,0.80
2023-03-28T10:17:35.398Z,0.77
2023-03-28T10:20:17.465Z,0.80
2023-03-28T10:22:47.766Z,0.50
2023-03-28T10:25:46.024Z,0.80
2023-03-28T10:28:23.681Z,0.60
2023-03-28T10:30:57.619Z,0.70
2023-03-28T10:33:36.722Z,0.60
2023-03-28T10:36:07.824Z,0.70
2023-03-28T10:38:45.125Z,0.80
2023-03-28T10:41:22.303Z,0.50
2023-03-28T10:43:51.244Z,0.60
2023-03-28T10:46:20.370Z,0.50
2023-03-28T10:49:07.892Z,0.80
2023-03-28T10:51:40.355Z,0.70
2023-03-28T10:54:21.079Z,0.60
2023-03-28T10:56:53.403Z,0.60
2023-03-28T10:59:34.429Z,0.60
2023-03-28T11:02:07.440Z,0.83
2023-03-28T11:04:52.557Z,0.80
2023-03-28T11:07:57.078Z,0.53
2023-03-28T11:10:31.419Z,0.60
2023-03-28T11:13:06.087Z,0.60
2023-03-28T11:16:11.294Z,0.63
2023-03-28T11:18:41.537Z,0.50
2023-03-28T11:21:24.846Z,0.57
2023-03-28T11:23:53.823Z,0.70
2023-03-28T11:26:41.943Z,0.77
2023-03-28T11:29:42.722Z,0.90
2023-03-28T11:32:23.151Z,0.90
2023-03-28T11:35:02.268Z,0.90
2023-03-28T11:37:38.400Z,0.87
2023-03-28T11:40:25.791Z,0.90
2023-03-28T11:42:59.010Z,1.10
2023-03-28T11:45:52.690Z,1.00
2023-03-28T11:48:49.189Z,0.97
2023-03-28T11:51:32.385Z,0.90
2023-03-28T11:54:09.713Z,1.00
2023-03-28T11:56:43.127Z,1.23
2023-03-28T11:59:21.238Z,1.07
2023-03-28T12:01:53.058Z,0.90
2023-03-28T12:04:29.757Z,1.00
2023-03-28T12:07:10.535Z,1.10
2023-03-28T12:09:56.047Z,0.90
2023-03-28T12:12:31.031Z,1.20
2023-03-28T12:15:10.960Z,1.10
2023-03-28T12:17:48.276Z,1.00
2023-03-28T12:20:30.998Z,1.00
2023-03-28T12:23:04.753Z,0.80
2023-03-28T12:25:46.577Z,0.97
2023-03-28T12:28:45.386Z,1.10
2023-03-28T12:31:31.779Z,1.00
2023-03-28T12:34:12.344Z,1.07
2023-03-28T12:36:51.121Z,1.03
2023-03-28T12:40:13.695Z,0.90
2023-03-28T12:42:45.556Z,1.10
2023-03-28T12:45:30.048Z,1.20
2023-03-28T12:48:06.734Z,1.00
2023-03-28T12:50:52.246Z,1.00
2023-03-28T12:53:21.953Z,1.20
2023-03-28T12:55:52.768Z,1.20
2023-03-28T12:58:34.262Z,0.90
2023-03-28T13:01:07.960Z,1.00
2023-03-28T13:03:46.922Z,0.90
2023-03-28T13:06:29.451Z,1.20
2023-03-28T13:09:05.273Z,0.77
2023-03-28T13:11:41.559Z,0.80
2023-03-28T13:14:40.087Z,1.07
2023-03-28T13:17:23.520Z,1.07
2023-03-28T13:20:26.998Z,0.90
2023-03-28T13:23:02.426Z,1.10
2023-03-28T13:25:34.244Z,0.90
2023-03-28T13:28:22.750Z,0.90
2023-03-28T13:31:25.020Z,1.07
2023-03-28T13:33:54.272Z,1.00
2023-03-28T13:36:27.197Z,0.90
2023-03-28T13:39:10.234Z,0.90
2023-03-28T13:41:56.167Z,0.90
2023-03-28T13:44:44.459Z,1.00
2023-03-28T13:47:20.369Z,0.87
2023-03-28T13:50:21.417Z,1.03
2023-03-28T13:52:48.647Z,1.00
2023-03-28T13:55:26.560Z,0.73
2023-03-28T13:57:54.440Z,0.90
2023-03-28T14:00:25.979Z,0.93
2023-03-28T14:03:00.744Z,0.80
2023-03-28T14:05:33.553Z,0.70
2023-03-28T14:08:15.987Z,0.90
2023-03-28T14:10:45.488Z,0.70
2023-03-28T14:13:24.354Z,0.90
2023-03-28T14:15:54.244Z,0.70
2023-03-28T14:18:42.256Z,0.90
2023-03-28T14:21:11.409Z,0.80
2023-03-28T14:23:54.835Z,0.80
2023-03-28T14:26:23.710Z,0.90
2023-03-28T14:28:52.098Z,0.70
2023-03-28T14:31:32.390Z,0.80
2023-03-28T14:34:12.258Z,0.80
2023-03-28T14:36:58.697Z,0.80
2023-03-28T14:39:28.010Z,0.83
2023-03-28T14:41:56.932Z,0.60
2023-03-28T14:44:24.432Z,0.90
2023-03-28T14:46:54.270Z,0.73
2023-03-28T14:49:24.722Z,0.90
2023-03-28T14:52:00.367Z,0.90
2023-03-28T14:54:41.693Z,0.70
2023-03-28T14:57:14.727Z,0.80
2023-03-28T14:59:45.096Z,0.93
2023-03-28T15:02:36.930Z,0.63
2023-03-28T15:05:08.491Z,0.70
2023-03-28T15:07:37.314Z,0.93
2023-03-28T15:10:19.783Z,1.00
2023-03-28T15:13:04.805Z,0.90
2023-03-28T15:15:38.680Z,0.70
2023-03-28T15:18:11.356Z,0.80
2023-03-28T15:20:43.048Z,0.70
2023-03-28T15:23:19.987Z,0.60
2023-03-28T15:25:47.458Z,0.80
2023-03-28T15:28:18.740Z,1.00
2023-03-28T15:30:47.719Z,0.90
2023-03-28T15:33:22.116Z,0.90
2023-03-28T15:35:49.520Z,0.73
2023-03-28T15:38:23.071Z,0.53
2023-03-28T15:40:51.758Z,0.80
2023-03-28T15:43:27.972Z,0.83
2023-03-28T15:46:13.248Z,1.00
2023-03-28T15:48:43.073Z,0.73
2023-03-28T15:51:18.731Z,0.90
2023-03-28T15:53:47.948Z,1.00
2023-03-28T15:56:23.935Z,1.00
2023-03-28T15:58:51.785Z,0.70
2023-03-28T16:01:23.206Z,0.80
2023-03-28T16:03:51.710Z,0.70
2023-03-28T16:06:31.812Z,0.90
2023-03-28T16:09:19.159Z,0.80
2023-03-28T16:11:50.318Z,0.80
2023-03-28T16:14:19.724Z,0.73
2023-03-28T16:16:47.264Z,0.70
2023-03-28T16:19:22.626Z,0.83
2023-03-28T16:21:50.767Z,0.93
2023-03-28T16:24:18.089Z,0.70
2023-03-28T16:26:48.577Z,0.80
2023-03-28T16:29:16.206Z,0.80
2023-03-28T16:31:43.631Z,0.80
2023-03-28T16:34:11.160Z,0.70
2023-03-28T16:36:39.556Z,0.77
2023-03-28T16:39:08.416Z,0.90
2023-03-28T16:41:35.966Z,0.80
2023-03-28T16:44:03.775Z,0.90
2023-03-28T16:46:31.659Z,0.73
2023-03-28T16:48:58.814Z,0.60
2023-03-28T16:51:26.260Z,0.70
2023-03-28T16:53:53.825Z,0.87
2023-03-28T16:56:27.084Z,1.00
2023-03-28T16:58:54.730Z,0.73
2023-03-28T17:01:23.050Z,1.07
2023-03-28T17:03:52.913Z,0.60
2023-03-28T17:06:20.329Z,0.70
2023-03-28T17:08:48.395Z,0.70
2023-03-28T17:11:16.355Z,0.80
2023-03-28T17:13:43.563Z,0.80
2023-03-28T17:16:11.408Z,0.67
2023-03-28T17:18:38.660Z,0.70
2023-03-28T17:21:11.923Z,0.80
2023-03-28T17:23:41.399Z,0.50
2023-03-28T17:26:10.241Z,0.80
2023-03-28T17:28:39.968Z,0.60
2023-03-28T17:31:17.996Z,0.93
2023-03-28T17:33:47.232Z,0.80
2023-03-28T17:36:20.968Z,0.70
2023-03-28T17:38:53.807Z,0.80
2023-03-28T17:41:23.443Z,0.60
2023-03-28T17:43:52.829Z,0.67
2023-03-28T17:46:20.303Z,1.00
2023-03-28T17:48:47.796Z,0.80
2023-03-28T17:51:15.547Z,0.77
2023-03-28T17:53:49.512Z,0.70
2023-03-28T17:56:17.375Z,0.87
2023-03-28T17:58:45.006Z,0.87
2023-03-28T18:01:18.680Z,0.80
2023-03-28T18:03:46.746Z,0.90
2023-03-28T18:06:14.551Z,0.80
2023-03-28T18:08:45.028Z,0.90
2023-03-28T18:11:15.825Z,0.90
2023-03-28T18:13:43.578Z,1.00
2023-03-28T18:16:18.240Z,0.80
2023-03-28T18:18:45.674Z,1.00
2023-03-28T18:21:12.940Z,0.70
2023-03-28T18:23:41.027Z,0.73
2023-03-28T18:26:08.579Z,1.13
2023-03-28T18:28:36.894Z,1.07
2023-03-28T18:31:12.748Z,0.97
2023-03-28T18:33:41.144Z,0.80
2023-03-28T18:36:08.981Z,0.90
2023-03-28T18:38:42.375Z,1.13
2023-03-28T18:41:12.854Z,1.00
2023-03-28T18:43:42.288Z,0.97
2023-03-28T18:46:15.316Z,1.30
2023-03-28T18:48:43.791Z,0.90
2023-03-28T18:51:11.956Z,1.17
2023-03-28T18:53:39.165Z,1.10
2023-03-28T18:56:07.909Z,1.17
2023-03-28T18:58:37.472Z,1.00
2023-03-28T19:01:06.534Z,1.03
2023-03-28T19:03:40.559Z,1.27
2023-03-28T19:06:09.470Z,0.93
2023-03-28T19:08:37.412Z,1.00
2023-03-28T19:11:14.170Z,0.90
2023-03-28T19:13:41.735Z,1.40
2023-03-28T19:16:12.652Z,1.00
2023-03-28T19:18:42.472Z,1.30
2023-03-28T19:21:11.325Z,1.07
2023-03-28T19:23:42.782Z,1.37
2023-03-28T19:26:13.103Z,1.00
2023-03-28T19:28:41.615Z,1.10
2023-03-28T19:31:11.949Z,1.40
2023-03-28T19:33:52.008Z,1.17
2023-03-28T19:36:21.173Z,1.50
2023-03-28T19:38:48.566Z,1.13
2023-03-28T19:41:21.039Z,0.93
2023-03-28T19:43:51.373Z,1.43
2023-03-28T19:46:29.485Z,1.67
2023-03-28T19:49:01.420Z,1.20
2023-03-28T19:51:29.162Z,1.40
2023-03-28T19:53:56.627Z,1.20
2023-03-28T19:56:25.254Z,1.50
2023-03-28T19:58:53.804Z,1.53
2023-03-28T20:01:21.261Z,1.10
2023-03-28T20:03:52.631Z,1.20
2023-03-28T20:06:24.053Z,1.13
2023-03-28T20:08:52.167Z,1.00
2023-03-28T20:11:19.768Z,1.43
2023-03-28T20:13:47.043Z,1.40
2023-03-28T20:16:14.563Z,1.03
2023-03-28T20:18:42.541Z,1.17
2023-03-28T20:21:12.598Z,1.60
2023-03-28T20:23:42.100Z,1.00
2023-03-28T20:26:21.704Z,1.13
2023-03-28T20:29:00.507Z,1.13
2023-03-28T20:31:29.032Z,1.30
2023-03-28T20:33:57.660Z,1.20
2023-03-28T20:36:25.124Z,1.27
2023-03-28T20:38:53.786Z,1.10
2023-03-28T20:41:20.958Z,1.40
2023-03-28T20:43:50.261Z,1.20
2023-03-28T20:46:19.296Z,1.20
2023-03-28T20:48:56.911Z,1.00
2023-03-28T20:51:26.146Z,1.37
2023-03-28T20:54:01.662Z,1.03
2023-03-28T20:56:30.876Z,1.10
2023-03-28T20:58:59.888Z,1.37
2023-03-28T21:01:30.406Z,1.30
2023-03-28T21:04:00.210Z,1.20
2023-03-28T21:06:39.735Z,1.33
2023-03-28T21:09:15.403Z,1.17
2023-03-28T21:11:44.008Z,1.30
2023-03-28T21:14:13.706Z,1.30
2023-03-28T21:16:41.707Z,1.40
2023-03-28T21:19:09.885Z,1.30
2023-03-28T21:21:37.093Z,1.40
2023-03-28T21:24:05.564Z,1.67
2023-03-28T21:26:32.760Z,1.30
2023-03-28T21:29:00.018Z,1.10
2023-03-28T21:31:29.352Z,1.30
2023-03-28T21:33:58.015Z,1.20
2023-03-28T21:36:26.861Z,1.47
2023-03-28T21:38:54.924Z,1.20
2023-03-28T21:41:22.813Z,1.30
2023-03-28T21:43:50.598Z,1.57
2023-03-28T21:46:18.871Z,1.30
2023-03-28T21:48:48.505Z,1.20
2023-03-28T21:51:17.248Z,1.60
2023-03-28T21:53:45.983Z,1.40
2023-03-28T21:56:14.757Z,1.37
2023-03-28T21:58:42.097Z,1.20
2023-03-28T22:01:12.826Z,1.50
2023-03-28T22:03:40.634Z,1.20
2023-03-28T22:06:08.288Z,1.30
2023-03-28T22:08:35.683Z,1.20
2023-03-28T22:11:04.405Z,1.30
2023-03-28T22:13:31.806Z,1.40
2023-03-28T22:16:00.133Z,1.20
2023-03-28T22:18:30.810Z,1.00
2023-03-28T22:21:02.694Z,1.33
2023-03-28T22:23:30.229Z,1.40
2023-03-28T22:25:58.743Z,1.13
2023-03-28T22:28:26.222Z,1.10
2023-03-28T22:30:55.093Z,1.20
2023-03-28T22:33:23.628Z,1.47
2023-03-28T22:35:51.319Z,1.30
2023-03-28T22:38:19.560Z,1.20
2023-03-28T22:40:47.661Z,1.30
2023-03-28T22:43:16.264Z,1.23
2023-03-28T22:45:43.736Z,1.00
2023-03-28T22:48:14.701Z,1.47
2023-03-28T22:50:45.906Z,1.17
2023-03-28T22:53:14.716Z,1.10
2023-03-28T22:55:42.541Z,1.40
2023-03-28T22:58:09.754Z,1.10
2023-03-28T23:00:36.896Z,1.10
2023-03-28T23:03:04.173Z,1.20
2023-03-28T23:05:31.574Z,1.20
2023-03-28T23:08:00.143Z,1.20
2023-03-28T23:10:27.666Z,1.10
2023-03-28T23:12:54.818Z,1.27
2023-03-28T23:15:22.601Z,1.40
2023-03-28T23:17:49.774Z,1.60
2023-03-28T23:20:18.593Z,1.43
2023-03-28T23:22:48.082Z,1.70
2023-03-28T23:25:18.750Z,1.70
2023-03-28T23:27:46.737Z,2.10
2023-03-28T23:30:16.498Z,1.70
2023-03-28T23:32:44.286Z,1.70
2023-03-28T23:35:14.374Z,1.80
2023-03-28T23:37:41.653Z,1.50
2023-03-28T23:40:15.070Z,1.50
2023-03-28T23:42:44.730Z,1.60
2023-03-28T23:45:13.949Z,1.67
2023-03-28T23:47:41.940Z,1.60
2023-03-28T23:50:10.416Z,1.40
2023-03-28T23:52:37.598Z,1.80
2023-03-28T23:55:05.275Z,1.77
2023-03-28T23:57:32.451Z,1.70
2023-03-28T23:59:59.771Z,1.17
